Time;durP1;ratioP1;P1;durP2;ratioP2;P2;SDS_P1;SDS_P2;PMS_P1;PMS_P2;Temp;Humidity;BMP_temperature;BMP_pressure;BME280_temperature;BME280_humidity;BME280_pressure;Samples;Min_cycle;Max_cycle;Signal;HPM_P1;HPM_P2
2020/12/29 00:01:33;;;;;;;10.57;7.70;;;0.00;96.30;;;;;;5099235;28;20927;-80
2020/12/29 00:03:59;;;;;;;13.70;8.80;;;0.00;96.30;;;;;;5098618;28;20414;-80
2020/12/29 00:06:24;;;;;;;12.73;8.93;;;0.00;96.30;;;;;;5098836;28;20416;-80
2020/12/29 00:08:50;;;;;;;28.43;16.50;;;0.00;96.30;;;;;;5098876;28;20174;-79
2020/12/29 00:11:15;;;;;;;15.03;10.03;;;0.00;96.30;;;;;;5100131;28;20179;-80
2020/12/29 00:13:41;;;;;;;47.20;22.53;;;0.10;96.30;;;;;;5099378;28;20214;-80
2020/12/29 00:16:06;;;;;;;20.73;12.60;;;0.10;96.30;;;;;;5099047;28;20199;-80
2020/12/29 00:18:31;;;;;;;18.43;11.27;;;0.10;96.30;;;;;;5099570;28;20170;-80
2020/12/29 00:20:57;;;;;;;27.50;14.23;;;0.10;96.30;;;;;;5099163;28;20170;-80
2020/12/29 00:23:22;;;;;;;14.07;8.60;;;0.00;96.30;;;;;;5098089;28;20653;-80
2020/12/29 00:25:48;;;;;;;13.23;9.97;;;0.10;96.30;;;;;;5099215;28;20201;-80
2020/12/29 00:28:13;;;;;;;15.70;8.70;;;0.10;96.30;;;;;;5125380;22;20301;-78
2020/12/29 00:30:39;;;;;;;11.40;8.43;;;0.00;96.30;;;;;;5073823;28;20167;-78
2020/12/29 00:33:04;;;;;;;23.40;12.50;;;0.10;96.30;;;;;;5073046;28;20544;-78
2020/12/29 00:35:30;;;;;;;12.17;8.70;;;0.00;96.30;;;;;;5072543;28;20167;-78
2020/12/29 00:37:55;;;;;;;11.00;8.67;;;-0.10;96.30;;;;;;5080763;28;20190;-77
2020/12/29 00:40:20;;;;;;;21.77;12.40;;;0.00;96.30;;;;;;5094625;28;20171;-77
2020/12/29 00:42:46;;;;;;;16.77;11.47;;;0.00;96.30;;;;;;5113596;28;20184;-77
2020/12/29 00:45:11;;;;;;;15.13;9.43;;;0.00;96.30;;;;;;5114116;28;20200;-77
2020/12/29 00:47:37;;;;;;;12.60;8.30;;;-0.10;96.30;;;;;;5114013;28;20194;-78
2020/12/29 00:50:02;;;;;;;11.10;7.43;;;-0.10;96.30;;;;;;5112728;28;20170;-78
2020/12/29 00:52:28;;;;;;;8.70;6.40;;;-0.10;96.30;;;;;;5113235;28;20584;-79
2020/12/29 00:54:53;;;;;;;8.90;6.70;;;-0.10;96.30;;;;;;5113981;28;20173;-79
2020/12/29 00:57:19;;;;;;;11.13;6.97;;;-0.10;96.30;;;;;;5112971;27;20230;-78
2020/12/29 00:59:44;;;;;;;9.20;6.07;;;-0.10;96.30;;;;;;5112581;28;20172;-79
2020/12/29 05:00:25;;;;;;;5.40;3.73;;;-0.80;96.30;;;;;;6060464;22;20426;-78
2020/12/29 05:02:51;;;;;;;5.90;4.07;;;-0.70;96.30;;;;;;4972779;28;20425;-79
2020/12/29 05:05:16;;;;;;;5.40;3.67;;;-0.50;96.30;;;;;;4974298;28;20406;-78
2020/12/29 05:07:43;;;;;;;4.60;3.60;;;-0.40;96.30;;;;;;4974528;28;20245;-78
2020/12/29 05:10:09;;;;;;;4.60;3.10;;;-0.40;96.30;;;;;;4974388;28;20229;-79
2020/12/29 05:12:46;;;;;;;9.63;4.80;;;-0.30;96.30;;;;;;4973768;28;20443;-79
2020/12/29 05:15:11;;;;;;;5.07;3.60;;;-0.20;96.30;;;;;;4973837;28;20201;-79
2020/12/29 05:17:37;;;;;;;3.77;3.10;;;-0.20;96.30;;;;;;4975059;28;20853;-80
2020/12/29 05:20:03;;;;;;;5.27;3.27;;;0.10;96.30;;;;;;4974992;28;20233;-79
2020/12/29 05:22:29;;;;;;;7.77;4.87;;;0.20;96.30;;;;;;4973462;28;20288;-79
2020/12/29 05:24:54;;;;;;;14.03;9.77;;;0.30;96.30;;;;;;4973907;28;20456;-79
2020/12/29 05:27:21;;;;;;;9.80;6.53;;;0.10;96.30;;;;;;4974801;28;20517;-79
2020/12/29 05:29:46;;;;;;;7.20;5.83;;;-0.20;96.30;;;;;;4973645;28;20729;-79
2020/12/29 05:32:23;;;;;;;7.07;4.93;;;-0.50;96.30;;;;;;4973988;28;20524;-79
2020/12/29 05:34:49;;;;;;;5.60;4.97;;;-0.70;96.30;;;;;;4973020;28;20225;-80
2020/12/29 05:37:15;;;;;;;6.80;4.80;;;-1.00;96.30;;;;;;4973527;28;20795;-79
2020/12/29 05:39:41;;;;;;;4.10;3.50;;;-1.00;96.30;;;;;;4974135;28;20182;-79
2020/12/29 05:42:07;;;;;;;4.90;3.00;;;-1.10;96.30;;;;;;4988559;28;21177;-79
2020/12/29 05:44:34;;;;;;;4.43;3.43;;;-0.90;96.30;;;;;;4993300;28;20633;-79
2020/12/29 05:47:03;;;;;;;65.23;35.73;;;-0.70;96.30;;;;;;4993501;28;20227;-79
2020/12/29 05:49:31;;;;;;;12.37;8.40;;;-0.60;96.30;;;;;;4992406;28;20432;-79
2020/12/29 05:51:57;;;;;;;9.03;5.03;;;-0.50;96.30;;;;;;4992926;28;20440;-79
2020/12/29 05:54:24;;;;;;;4.60;3.50;;;-0.50;96.30;;;;;;4993526;28;20468;-79
2020/12/29 05:56:51;;;;;;;4.93;3.97;;;-0.40;96.30;;;;;;4993477;28;20408;-79
2020/12/29 05:59:17;;;;;;;5.43;3.90;;;-0.40;96.30;;;;;;4993561;28;20800;-79
2020/12/29 06:01:53;;;;;;;4.97;3.60;;;-0.50;96.30;;;;;;4992590;28;20445;-79
2020/12/29 06:04:20;;;;;;;7.60;4.17;;;-0.50;96.30;;;;;;4993385;28;20185;-79
2020/12/29 06:06:49;;;;;;;4.80;3.67;;;-0.50;96.30;;;;;;4993473;28;20424;-80
2020/12/29 06:09:17;;;;;;;6.20;4.30;;;-0.60;96.30;;;;;;4993327;28;20405;-79
2020/12/29 06:11:54;;;;;;;4.90;3.57;;;-0.70;96.30;;;;;;4992625;28;20464;-79
2020/12/29 06:14:24;;;;;;;5.33;4.07;;;-0.90;96.30;;;;;;4993479;28;20476;-79
2020/12/29 06:16:51;;;;;;;6.90;4.20;;;-1.00;96.30;;;;;;4992550;28;20824;-79
2020/12/29 06:19:18;;;;;;;7.70;4.80;;;-1.10;96.30;;;;;;4993540;28;20412;-79
2020/12/29 06:21:52;;;;;;;5.97;3.83;;;-1.00;96.30;;;;;;4992302;28;20443;-78
2020/12/29 06:24:19;;;;;;;3.63;3.33;;;-1.00;96.30;;;;;;4993237;28;20409;-79
2020/12/29 06:26:47;;;;;;;6.93;4.57;;;-1.00;96.30;;;;;;4993121;28;20412;-78
2020/12/29 06:29:16;;;;;;;7.20;3.83;;;-1.00;96.30;;;;;;4992953;28;20409;-78
2020/12/29 06:31:43;;;;;;;5.97;4.10;;;-1.00;96.30;;;;;;4992336;28;20482;-78
2020/12/29 06:34:10;;;;;;;4.73;3.57;;;-1.00;96.30;;;;;;4992997;28;20815;-78
2020/12/29 06:36:39;;;;;;;4.87;3.40;;;-1.10;96.30;;;;;;4992805;28;20503;-78
2020/12/29 06:39:07;;;;;;;4.47;3.27;;;-1.30;96.30;;;;;;4993112;28;20409;-78
2020/12/29 06:41:34;;;;;;;2.83;2.10;;;-1.40;96.30;;;;;;4981264;28;20969;-79
2020/12/29 06:44:01;;;;;;;6.37;3.70;;;-1.20;96.30;;;;;;4977619;28;20509;-79
2020/12/29 06:46:27;;;;;;;7.27;4.97;;;-1.10;96.30;;;;;;4969899;28;20444;-77
2020/12/29 06:49:17;;;;;;;4.43;4.03;;;-0.90;96.30;;;;;;4972813;28;20418;-79
2020/12/29 06:51:44;;;;;;;8.67;7.77;;;-0.40;96.30;;;;;;4967594;28;20194;-78
2020/12/29 06:54:13;;;;;;;7.90;6.40;;;-0.20;96.30;;;;;;4968229;28;20968;-81
2020/12/29 06:56:56;;;;;;;6.27;5.63;;;-0.30;96.30;;;;;;4975633;28;20421;-78
2020/12/29 06:59:22;;;;;;;1.70;1.60;;;-0.10;96.30;;;;;;4976364;28;20409;-78
2020/12/29 07:01:49;;;;;;;2.13;1.93;;;0.20;96.30;;;;;;4975690;28;20457;-77
2020/12/29 07:04:15;;;;;;;1.60;1.50;;;0.30;96.30;;;;;;4975715;28;20189;-77
2020/12/29 07:06:41;;;;;;;1.60;1.37;;;0.20;96.30;;;;;;4964328;28;20863;-78
2020/12/29 07:09:15;;;;;;;1.63;1.47;;;0.20;96.30;;;;;;4972465;28;20508;-79
2020/12/29 07:12:04;;;;;;;1.63;1.53;;;0.40;96.30;;;;;;4970775;28;20205;-77
2020/12/29 07:14:32;;;;;;;1.50;1.40;;;0.40;96.30;;;;;;4975813;28;20468;-77
2020/12/29 07:16:59;;;;;;;2.03;1.67;;;0.50;96.30;;;;;;4974816;28;20457;-78
2020/12/29 07:19:26;;;;;;;2.40;1.73;;;0.60;96.30;;;;;;4974584;28;20429;-78
2020/12/29 07:21:52;;;;;;;5.20;3.00;;;0.60;96.30;;;;;;4974285;28;21348;-78
2020/12/29 07:24:18;;;;;;;2.50;1.57;;;0.60;96.30;;;;;;4975657;28;20432;-78
2020/12/29 07:26:43;;;;;;;2.40;2.20;;;0.60;96.30;;;;;;4977474;28;20418;-78
2020/12/29 07:29:09;;;;;;;2.03;1.40;;;0.70;96.30;;;;;;4972794;28;20189;-79
2020/12/29 07:31:39;;;;;;;1.87;1.63;;;0.70;96.30;;;;;;4967735;28;20202;-79
2020/12/29 07:34:12;;;;;;;2.63;1.80;;;0.70;96.30;;;;;;4980543;28;20674;-77
2020/12/29 07:36:48;;;;;;;1.40;1.30;;;0.70;96.30;;;;;;4974216;28;20452;-77
2020/12/29 07:39:16;;;;;;;2.00;1.53;;;0.80;96.30;;;;;;4975727;28;20465;-78
2020/12/29 07:41:43;;;;;;;1.70;1.40;;;0.90;96.30;;;;;;4982245;28;20452;-77
2020/12/29 07:44:09;;;;;;;3.57;1.30;;;0.80;96.30;;;;;;4966675;28;20435;-77
2020/12/29 07:46:35;;;;;;;2.23;1.60;;;0.70;96.30;;;;;;4966864;28;20456;-78
2020/12/29 07:49:01;;;;;;;1.77;1.30;;;0.80;96.30;;;;;;4971435;28;20423;-78
2020/12/29 07:51:27;;;;;;;1.97;1.30;;;0.80;96.30;;;;;;4974833;28;20260;-78
2020/12/29 07:53:53;;;;;;;2.53;1.90;;;0.80;96.30;;;;;;4976365;28;20232;-78
2020/12/29 07:56:19;;;;;;;1.10;1.00;;;1.00;96.30;;;;;;4968446;28;20273;-81
2020/12/29 07:58:45;;;;;;;1.20;1.10;;;1.10;96.30;;;;;;4969440;28;20478;-78
2020/12/29 08:01:11;;;;;;;1.20;0.97;;;1.10;96.30;;;;;;4975615;28;20477;-79
2020/12/29 08:03:38;;;;;;;1.93;1.00;;;1.30;96.30;;;;;;4954915;28;20171;-78
2020/12/29 08:06:12;;;;;;;1.87;1.03;;;1.40;96.30;;;;;;4973329;28;20944;-77
2020/12/29 08:08:40;;;;;;;1.10;0.80;;;1.40;96.30;;;;;;4976037;28;20424;-77
2020/12/29 08:11:07;;;;;;;2.17;1.20;;;1.50;96.30;;;;;;4976053;28;20516;-78
2020/12/29 08:13:32;;;;;;;1.73;1.13;;;1.60;96.30;;;;;;4974649;28;20583;-78
2020/12/29 08:15:58;;;;;;;1.57;1.30;;;1.60;96.30;;;;;;4975970;28;20525;-78
2020/12/29 08:18:23;;;;;;;2.63;1.30;;;1.60;96.30;;;;;;4975396;28;20728;-79
2020/12/29 08:20:50;;;;;;;2.83;1.40;;;1.60;96.30;;;;;;4974638;28;20229;-81
2020/12/29 08:23:17;;;;;;;2.33;1.53;;;1.60;96.30;;;;;;4974224;28;20241;-79
2020/12/29 08:25:53;;;;;;;3.40;1.80;;;1.70;96.30;;;;;;4976220;28;20505;-78
2020/12/29 08:28:21;;;;;;;2.73;0.90;;;1.60;96.30;;;;;;4975683;28;20401;-78
2020/12/29 08:30:46;;;;;;;1.20;1.00;;;1.70;96.30;;;;;;4975364;28;20853;-78
2020/12/29 08:33:15;;;;;;;1.37;1.13;;;1.70;96.30;;;;;;4975176;28;20445;-79
2020/12/29 08:35:51;;;;;;;1.10;0.83;;;1.80;96.30;;;;;;4975328;28;20198;-79
2020/12/29 08:38:47;;;;;;;1.10;0.90;;;2.00;96.30;;;;;;4975140;28;20414;-78
2020/12/29 08:41:24;;;;;;;1.33;1.23;;;2.00;96.30;;;;;;4983335;28;20427;-78
2020/12/29 08:43:52;;;;;;;1.20;1.10;;;2.10;96.30;;;;;;4995345;28;20893;-79
2020/12/29 08:46:20;;;;;;;1.40;1.10;;;2.10;96.30;;;;;;4995200;28;20926;-77
2020/12/29 08:48:53;;;;;;;2.33;1.23;;;2.20;96.30;;;;;;4994867;28;20822;-77
2020/12/29 08:51:21;;;;;;;1.47;1.30;;;2.20;96.30;;;;;;4996707;28;20428;-77
2020/12/29 08:53:46;;;;;;;3.30;1.60;;;2.20;96.30;;;;;;4996592;28;20455;-77
2020/12/29 08:56:29;;;;;;;2.83;2.33;;;2.20;96.30;;;;;;4979795;28;20430;-78
2020/12/29 08:58:55;;;;;;;1.20;1.00;;;2.30;96.30;;;;;;4976262;28;20588;-78
2020/12/29 09:01:40;;;;;;;1.73;0.90;;;2.30;96.30;;;;;;4975543;28;20456;-77
2020/12/29 09:04:25;;;;;;;1.60;1.40;;;2.30;96.30;;;;;;4969668;28;20229;-77
2020/12/29 09:07:01;;;;;;;2.10;1.60;;;2.40;96.30;;;;;;4975112;28;20420;-77
2020/12/29 09:09:28;;;;;;;3.17;1.23;;;2.40;96.30;;;;;;4974404;28;20414;-77
2020/12/29 09:12:06;;;;;;;1.07;0.97;;;2.40;96.30;;;;;;4970788;28;20434;-77
2020/12/29 09:14:32;;;;;;;1.00;0.70;;;2.50;96.30;;;;;;4954466;29;20557;-78
2020/12/29 09:17:07;;;;;;;2.17;1.47;;;2.50;96.30;;;;;;4956483;29;20477;-78
2020/12/29 09:19:33;;;;;;;1.23;0.97;;;2.60;96.30;;;;;;4970527;28;20541;-77
2020/12/29 09:22:06;;;;;;;1.63;1.30;;;2.60;96.30;;;;;;4974262;28;20984;-77
2020/12/29 09:24:32;;;;;;;1.53;1.07;;;2.60;96.30;;;;;;4975004;28;20202;-77
2020/12/29 09:26:57;;;;;;;1.30;0.97;;;2.60;96.30;;;;;;4974748;28;20445;-77
2020/12/29 09:29:23;;;;;;;1.43;1.10;;;2.70;96.30;;;;;;4974811;28;20253;-76
2020/12/29 09:31:55;;;;;;;1.00;0.83;;;2.80;96.30;;;;;;4974223;28;20210;-77
2020/12/29 09:34:21;;;;;;;1.00;0.90;;;2.80;96.30;;;;;;4974276;28;20704;-76
2020/12/29 09:36:47;;;;;;;1.20;0.60;;;2.80;96.30;;;;;;4974309;28;20414;-76
2020/12/29 09:39:12;;;;;;;0.90;0.70;;;2.70;96.30;;;;;;4972962;28;20414;-76
2020/12/29 09:41:38;;;;;;;1.20;1.00;;;2.60;96.30;;;;;;4974758;28;20194;-79
2020/12/29 09:44:04;;;;;;;1.00;0.90;;;2.60;96.30;;;;;;4973576;28;20197;-77
2020/12/29 09:46:39;;;;;;;1.63;1.10;;;2.50;96.30;;;;;;4974817;28;20178;-76
2020/12/29 09:49:05;;;;;;;1.93;1.30;;;2.60;96.30;;;;;;4974918;28;20406;-76
2020/12/29 09:51:31;;;;;;;1.27;1.10;;;2.70;96.30;;;;;;4974845;28;20429;-76
2020/12/29 09:53:58;;;;;;;1.83;1.00;;;2.90;96.30;;;;;;4974496;28;20533;-77
2020/12/29 09:56:24;;;;;;;1.43;1.00;;;3.00;96.30;;;;;;4973310;28;20410;-77
2020/12/29 09:58:49;;;;;;;1.60;1.00;;;3.10;96.30;;;;;;4973036;28;20905;-78
2020/12/29 10:01:15;;;;;;;1.27;1.00;;;3.10;96.30;;;;;;4973996;28;20624;-76
2020/12/29 10:03:41;;;;;;;1.50;1.10;;;3.30;96.30;;;;;;4973262;28;20269;-76
2020/12/29 10:06:06;;;;;;;1.33;0.90;;;3.30;96.30;;;;;;4974607;28;20206;-78
2020/12/29 10:08:32;;;;;;;1.10;0.80;;;3.30;96.30;;;;;;4974379;28;20201;-77
2020/12/29 10:10:58;;;;;;;1.33;0.90;;;3.40;96.30;;;;;;4974334;28;20198;-77
2020/12/29 10:13:23;;;;;;;1.30;0.97;;;3.50;96.30;;;;;;4974095;28;20567;-77
2020/12/29 10:15:49;;;;;;;2.43;1.60;;;3.50;96.30;;;;;;4973099;28;20182;-77
2020/12/29 10:18:15;;;;;;;2.70;1.20;;;3.50;96.30;;;;;;4974014;28;20173;-77
2020/12/29 10:20:40;;;;;;;2.07;1.00;;;3.60;96.30;;;;;;4973977;28;20233;-77
2020/12/29 10:23:06;;;;;;;0.80;0.60;;;3.70;96.30;;;;;;4974073;28;20237;-77
2020/12/29 10:25:32;;;;;;;1.70;1.00;;;3.70;96.30;;;;;;4974340;28;20600;-78
2020/12/29 10:27:57;;;;;;;1.93;0.90;;;3.80;96.30;;;;;;4973955;28;20189;-79
2020/12/29 10:30:23;;;;;;;1.13;0.70;;;4.30;96.30;;;;;;4976118;28;20913;-77
2020/12/29 10:32:48;;;;;;;1.07;0.67;;;4.90;96.30;;;;;;4977681;28;20200;-77
2020/12/29 10:35:14;;;;;;;1.20;0.83;;;5.40;94.70;;;;;;4977570;28;20252;-77
2020/12/29 10:37:39;;;;;;;1.27;0.80;;;5.50;94.50;;;;;;4977710;28;20638;-80
2020/12/29 10:40:05;;;;;;;0.90;0.67;;;5.80;94.40;;;;;;4976133;28;20175;-77
2020/12/29 10:42:31;;;;;;;1.43;0.70;;;6.10;94.00;;;;;;4977099;28;20186;-77
2020/12/29 10:44:57;;;;;;;0.90;0.60;;;6.90;90.90;;;;;;4977398;28;20918;-77
2020/12/29 10:47:22;;;;;;;1.60;0.80;;;6.50;89.40;;;;;;4977554;28;20183;-77
2020/12/29 10:49:48;;;;;;;2.10;0.70;;;7.00;89.60;;;;;;4977172;28;20174;-78
2020/12/29 10:52:13;;;;;;;1.10;0.70;;;7.00;88.20;;;;;;4976999;28;20194;-77
2020/12/29 10:54:39;;;;;;;1.47;0.80;;;5.60;92.50;;;;;;4977015;28;20252;-77
2020/12/29 10:57:04;;;;;;;0.90;0.70;;;5.10;95.10;;;;;;4976885;28;20178;-76
2020/12/29 10:59:29;;;;;;;0.83;0.50;;;5.20;95.40;;;;;;4975410;28;20182;-77
2020/12/29 11:01:58;;;;;;;0.93;0.60;;;5.10;95.80;;;;;;4976007;28;20218;-78
2020/12/29 11:04:24;;;;;;;1.57;0.70;;;5.20;95.50;;;;;;4976643;28;20277;-77
2020/12/29 11:06:50;;;;;;;0.90;0.60;;;4.90;96.30;;;;;;4976162;28;20928;-78
2020/12/29 11:09:16;;;;;;;1.53;0.73;;;4.70;96.30;;;;;;4974954;28;20700;-75
2020/12/29 11:11:41;;;;;;;0.90;0.60;;;4.30;96.30;;;;;;4975832;28;20217;-76
2020/12/29 11:14:07;;;;;;;0.90;0.70;;;4.40;96.30;;;;;;4974888;28;20201;-75
2020/12/29 11:16:32;;;;;;;1.20;0.50;;;4.30;96.30;;;;;;4976604;28;20167;-75
2020/12/29 11:18:58;;;;;;;0.90;0.60;;;4.30;96.30;;;;;;4975172;28;20170;-75
2020/12/29 11:21:23;;;;;;;1.20;0.60;;;4.00;96.30;;;;;;4976309;28;20559;-74
2020/12/29 11:23:48;;;;;;;0.90;0.60;;;3.90;96.30;;;;;;4976241;28;20672;-76
2020/12/29 11:26:15;;;;;;;1.00;0.60;;;3.70;96.30;;;;;;4976554;28;20174;-77
2020/12/29 11:28:40;;;;;;;0.80;0.50;;;3.70;96.30;;;;;;4976311;28;20178;-76
2020/12/29 11:31:06;;;;;;;1.20;0.80;;;3.60;96.30;;;;;;4976154;28;20448;-76
2020/12/29 11:33:31;;;;;;;0.90;0.60;;;3.70;96.30;;;;;;4975861;28;20202;-77
2020/12/29 11:35:57;;;;;;;1.50;0.90;;;3.70;96.30;;;;;;4976200;28;20658;-76
2020/12/29 11:38:23;;;;;;;0.87;0.60;;;3.60;96.30;;;;;;4976580;28;20229;-76
2020/12/29 11:40:49;;;;;;;0.80;0.57;;;3.60;96.30;;;;;;4979931;28;20252;-76
2020/12/29 11:43:15;;;;;;;1.10;0.73;;;3.60;96.30;;;;;;4995052;28;20193;-77
2020/12/29 11:45:42;;;;;;;0.90;0.53;;;3.50;96.30;;;;;;4988047;28;20453;-75
2020/12/29 11:48:08;;;;;;;0.90;0.60;;;3.50;96.30;;;;;;4974628;28;20428;-75
2020/12/29 11:50:33;;;;;;;1.43;0.73;;;3.50;96.30;;;;;;4975885;28;20429;-75
2020/12/29 11:52:59;;;;;;;1.00;0.50;;;3.50;96.30;;;;;;4975492;28;20178;-76
2020/12/29 11:55:24;;;;;;;0.90;0.60;;;3.40;96.30;;;;;;4975800;28;20718;-75
2020/12/29 11:57:50;;;;;;;1.00;0.60;;;3.50;96.30;;;;;;4975448;28;20186;-75
2020/12/29 12:00:17;;;;;;;1.20;0.70;;;3.60;96.30;;;;;;4975400;28;20206;-75
2020/12/29 12:02:42;;;;;;;1.00;0.70;;;3.80;96.30;;;;;;4975359;28;20174;-75
2020/12/29 12:05:08;;;;;;;1.17;0.70;;;4.20;96.30;;;;;;4975599;28;20776;-75
2020/12/29 12:07:33;;;;;;;1.00;0.60;;;4.30;96.30;;;;;;4975601;28;20185;-74
2020/12/29 12:09:59;;;;;;;0.90;0.70;;;4.00;96.30;;;;;;4975514;28;20515;-75
2020/12/29 12:12:24;;;;;;;2.20;0.80;;;3.90;96.30;;;;;;4975056;28;20289;-74
2020/12/29 12:14:50;;;;;;;8.63;5.47;;;3.70;96.30;;;;;;4975410;28;20205;-74
2020/12/29 12:17:15;;;;;;;78.43;42.40;;;3.60;96.30;;;;;;4975060;28;20182;-75
2020/12/29 12:19:40;;;;;;;43.63;24.57;;;3.60;96.30;;;;;;4975299;28;20606;-74
2020/12/29 12:22:06;;;;;;;281.47;165.03;;;3.50;96.30;;;;;;4974996;28;20273;-75
2020/12/29 12:24:31;;;;;;;5.10;4.17;;;3.50;96.30;;;;;;4970244;28;20650;-75
2020/12/29 12:26:57;;;;;;;1.00;0.80;;;3.50;96.30;;;;;;4961347;28;20179;-74
2020/12/29 12:29:22;;;;;;;0.80;0.57;;;3.50;96.30;;;;;;4963776;28;20799;-75
2020/12/29 12:31:48;;;;;;;1.10;0.60;;;3.50;96.30;;;;;;4965244;28;20214;-74
2020/12/29 12:34:13;;;;;;;2.23;0.60;;;3.60;96.30;;;;;;4965952;28;20290;-75
2020/12/29 12:36:39;;;;;;;0.83;0.57;;;3.60;96.30;;;;;;4972307;28;20800;-75
2020/12/29 12:39:05;;;;;;;1.30;1.20;;;3.60;96.30;;;;;;4974281;28;20237;-74
2020/12/29 12:41:31;;;;;;;0.90;0.60;;;3.40;96.30;;;;;;4974396;28;20194;-75
2020/12/29 12:43:57;;;;;;;1.00;0.70;;;3.30;96.30;;;;;;4973981;28;20819;-74
2020/12/29 12:46:22;;;;;;;0.80;0.60;;;3.20;96.30;;;;;;4974012;28;20189;-75
2020/12/29 12:48:48;;;;;;;1.90;1.37;;;3.20;96.30;;;;;;4973290;28;20707;-74
2020/12/29 12:51:13;;;;;;;2.07;0.67;;;3.10;96.30;;;;;;4973562;28;20210;-74
2020/12/29 12:53:43;;;;;;;0.97;0.60;;;3.10;96.30;;;;;;4971899;28;20202;-75
2020/12/29 12:56:14;;;;;;;1.17;0.70;;;3.00;96.30;;;;;;4973989;28;20194;-74
2020/12/29 12:58:39;;;;;;;1.00;0.70;;;2.90;96.30;;;;;;4973473;28;20410;-74
2020/12/29 13:01:05;;;;;;;6.63;3.40;;;2.90;96.30;;;;;;4974733;28;20446;-74
2020/12/29 13:03:31;;;;;;;3.87;1.57;;;2.90;96.30;;;;;;4974321;28;20183;-74
2020/12/29 13:05:56;;;;;;;1.50;1.13;;;2.90;96.30;;;;;;4974182;28;20194;-74
2020/12/29 13:08:22;;;;;;;3.00;1.93;;;2.90;96.30;;;;;;4986124;28;20191;-75
2020/12/29 13:10:47;;;;;;;3.07;1.73;;;2.90;96.30;;;;;;4965487;28;20222;-72
2020/12/29 13:13:13;;;;;;;0.80;0.50;;;2.80;96.30;;;;;;4968467;28;20206;-74
2020/12/29 13:15:41;;;;;;;1.07;0.67;;;2.90;96.30;;;;;;4968640;28;20174;-73
2020/12/29 13:18:08;;;;;;;2.03;1.23;;;2.80;96.30;;;;;;4967390;28;20187;-73
2020/12/29 13:20:33;;;;;;;0.90;0.60;;;2.80;96.30;;;;;;4963066;28;20533;-75
2020/12/29 13:22:59;;;;;;;1.70;0.93;;;2.90;96.30;;;;;;4963113;28;20501;-73
2020/12/29 13:25:24;;;;;;;1.07;0.93;;;2.90;96.30;;;;;;4963855;28;20176;-74
2020/12/29 13:27:50;;;;;;;1.10;0.53;;;2.90;96.30;;;;;;4967316;28;20198;-74
2020/12/29 13:30:16;;;;;;;0.97;0.70;;;2.80;96.30;;;;;;4968483;28;20183;-75
2020/12/29 13:32:41;;;;;;;0.80;0.50;;;2.80;96.30;;;;;;4965029;28;20225;-74
2020/12/29 13:35:07;;;;;;;1.83;1.57;;;2.80;96.30;;;;;;4970197;28;20222;-74
2020/12/29 13:37:33;;;;;;;0.80;0.50;;;2.80;96.30;;;;;;4972550;28;20253;-74
2020/12/29 13:39:59;;;;;;;0.90;0.60;;;2.70;96.30;;;;;;4965889;28;20167;-75
2020/12/29 13:42:26;;;;;;;2.47;1.80;;;2.70;96.30;;;;;;4968438;28;20462;-74
2020/12/29 13:44:52;;;;;;;0.93;0.70;;;2.60;96.30;;;;;;4967615;28;20492;-75
2020/12/29 13:47:18;;;;;;;0.80;0.70;;;2.70;96.30;;;;;;4964903;28;20429;-74
2020/12/29 13:49:44;;;;;;;2.70;0.60;;;2.70;96.30;;;;;;4971126;28;20829;-75
2020/12/29 13:52:09;;;;;;;1.93;0.60;;;2.60;96.30;;;;;;4970631;28;20521;-75
2020/12/29 13:54:35;;;;;;;1.10;0.70;;;2.50;96.30;;;;;;4970376;28;20575;-75
2020/12/29 13:57:01;;;;;;;0.90;0.60;;;2.40;96.30;;;;;;4971013;28;20170;-76
2020/12/29 13:59:26;;;;;;;1.70;0.90;;;2.40;96.30;;;;;;4974250;28;20182;-75
2020/12/29 14:01:52;;;;;;;0.87;0.63;;;2.40;96.30;;;;;;4969557;28;20218;-75
2020/12/29 14:04:18;;;;;;;0.80;0.60;;;2.30;96.30;;;;;;4972133;28;20186;-75
2020/12/29 14:06:50;;;;;;;0.90;0.70;;;2.20;96.30;;;;;;4971080;28;20176;-75
2020/12/29 14:09:17;;;;;;;0.90;0.67;;;2.20;96.30;;;;;;4971883;28;20425;-76
2020/12/29 14:11:50;;;;;;;3.53;2.83;;;2.10;96.30;;;;;;4970874;28;20476;-75
2020/12/29 14:14:17;;;;;;;1.03;0.93;;;2.10;96.30;;;;;;4968139;28;20464;-75
2020/12/29 14:16:46;;;;;;;2.20;0.90;;;2.00;96.30;;;;;;4985712;28;20444;-75
2020/12/29 14:19:11;;;;;;;1.10;0.70;;;2.00;96.30;;;;;;4973538;28;20417;-76
2020/12/29 14:21:42;;;;;;;0.90;0.70;;;2.00;96.30;;;;;;4970941;28;20452;-75
2020/12/29 14:24:08;;;;;;;0.83;0.70;;;2.00;96.30;;;;;;4968361;28;20181;-75
2020/12/29 14:26:33;;;;;;;0.90;0.70;;;2.00;96.30;;;;;;4970995;28;20770;-77
2020/12/29 14:28:59;;;;;;;1.67;0.70;;;2.00;96.30;;;;;;4969114;28;20229;-76
2020/12/29 14:31:24;;;;;;;1.00;0.80;;;2.00;96.30;;;;;;4970524;28;20707;-76
2020/12/29 14:33:50;;;;;;;1.27;1.00;;;2.00;96.30;;;;;;4972475;28;20190;-76
2020/12/29 14:36:15;;;;;;;1.27;0.90;;;2.00;96.30;;;;;;4972391;28;20182;-75
2020/12/29 14:38:41;;;;;;;1.00;0.90;;;2.10;96.30;;;;;;4972505;28;20178;-76
2020/12/29 14:41:06;;;;;;;1.00;0.77;;;2.00;96.30;;;;;;4972329;28;20587;-77
2020/12/29 14:43:32;;;;;;;1.00;0.80;;;2.00;96.30;;;;;;4971711;28;20174;-76
2020/12/29 14:45:58;;;;;;;0.93;0.63;;;2.00;96.30;;;;;;4972504;28;20189;-76
2020/12/29 14:48:23;;;;;;;1.13;0.90;;;2.00;96.30;;;;;;4976518;28;20190;-77
2020/12/29 14:50:49;;;;;;;0.80;0.60;;;1.90;96.30;;;;;;4973957;28;20257;-77
2020/12/29 14:53:15;;;;;;;1.10;0.70;;;2.00;96.30;;;;;;4972130;28;20185;-76
2020/12/29 14:55:41;;;;;;;3.63;0.90;;;2.00;96.30;;;;;;4970865;28;20167;-77
2020/12/29 14:58:06;;;;;;;0.90;0.60;;;1.90;96.30;;;;;;4953847;28;20938;-77
2020/12/29 15:00:32;;;;;;;1.60;1.20;;;1.90;96.30;;;;;;4953381;28;20242;-77
2020/12/29 15:02:58;;;;;;;1.00;0.77;;;1.80;96.30;;;;;;4953510;28;20183;-77
2020/12/29 15:05:23;;;;;;;1.43;0.80;;;1.80;96.30;;;;;;4953637;28;20411;-77
2020/12/29 15:07:49;;;;;;;1.40;0.77;;;1.80;96.30;;;;;;4953826;28;20407;-77
2020/12/29 15:10:14;;;;;;;1.13;0.80;;;1.80;96.30;;;;;;4952536;28;20179;-77
2020/12/29 15:12:40;;;;;;;0.80;0.60;;;1.90;96.30;;;;;;4953513;28;20167;-77
2020/12/29 15:15:05;;;;;;;1.10;0.83;;;1.80;96.30;;;;;;4957096;28;20232;-77
2020/12/29 15:17:31;;;;;;;1.00;0.70;;;1.80;96.30;;;;;;4975483;28;20186;-77
2020/12/29 15:19:57;;;;;;;0.80;0.60;;;1.80;96.30;;;;;;4976932;28;20174;-77
2020/12/29 15:22:23;;;;;;;1.30;0.90;;;1.80;96.30;;;;;;4976546;28;20195;-77
2020/12/29 15:24:49;;;;;;;1.07;0.70;;;1.90;96.30;;;;;;4975458;28;20418;-77
2020/12/29 15:27:14;;;;;;;1.13;0.70;;;1.90;96.30;;;;;;4976490;28;20537;-77
2020/12/29 15:29:40;;;;;;;1.23;0.60;;;1.90;96.30;;;;;;4976665;28;20171;-78
2020/12/29 15:32:05;;;;;;;1.07;0.63;;;1.80;96.30;;;;;;4976142;28;20667;-76
2020/12/29 15:34:31;;;;;;;0.87;0.60;;;1.80;96.30;;;;;;4976455;28;20201;-77
2020/12/29 15:36:57;;;;;;;0.97;0.77;;;1.70;96.30;;;;;;4976343;28;20166;-77
2020/12/29 15:39:23;;;;;;;1.00;0.60;;;1.50;96.30;;;;;;4974949;28;20269;-77
2020/12/29 15:41:49;;;;;;;1.73;0.90;;;1.50;96.30;;;;;;4975868;28;20525;-77
2020/12/29 15:44:15;;;;;;;1.40;1.10;;;1.50;96.30;;;;;;4976276;28;20178;-78
2020/12/29 15:46:44;;;;;;;2.80;2.27;;;1.50;96.30;;;;;;4975070;28;20464;-78
2020/12/29 15:49:10;;;;;;;2.00;1.20;;;1.50;96.30;;;;;;4975126;28;20737;-77
2020/12/29 15:51:36;;;;;;;1.53;1.27;;;1.50;96.30;;;;;;4973980;28;20453;-78
2020/12/29 15:54:02;;;;;;;2.03;1.40;;;1.50;96.30;;;;;;4974357;28;20461;-77
2020/12/29 15:56:28;;;;;;;1.67;1.20;;;1.60;96.30;;;;;;4966143;28;20419;-78
2020/12/29 15:58:53;;;;;;;2.00;1.40;;;1.60;96.30;;;;;;4968703;28;20430;-78
2020/12/29 16:01:19;;;;;;;1.93;1.30;;;1.50;96.30;;;;;;4967364;28;20222;-78
2020/12/29 16:03:45;;;;;;;3.20;1.57;;;1.50;96.30;;;;;;4974413;28;20661;-78
2020/12/29 16:06:10;;;;;;;2.27;1.70;;;1.40;96.30;;;;;;4974201;28;20260;-78
2020/12/29 16:08:36;;;;;;;0.90;0.70;;;1.40;96.30;;;;;;4967041;28;20215;-78
2020/12/29 16:11:03;;;;;;;1.30;1.20;;;1.20;96.30;;;;;;4973122;28;20202;-79
2020/12/29 16:13:28;;;;;;;2.87;1.70;;;1.20;96.30;;;;;;4968216;28;20217;-78
2020/12/29 16:15:54;;;;;;;1.07;0.80;;;1.10;96.30;;;;;;4971054;28;20552;-78
2020/12/29 16:18:19;;;;;;;7.90;4.20;;;1.00;96.30;;;;;;4969693;28;20198;-78
2020/12/29 16:20:45;;;;;;;12.07;7.77;;;1.00;96.30;;;;;;4970149;28;20739;-77
2020/12/29 16:23:10;;;;;;;1.10;1.00;;;1.10;96.30;;;;;;4966460;28;20597;-78
2020/12/29 16:25:36;;;;;;;1.63;1.20;;;1.10;96.30;;;;;;4965628;28;20205;-79
2020/12/29 16:28:01;;;;;;;1.13;0.83;;;1.10;96.30;;;;;;4971207;28;20549;-79
2020/12/29 16:30:27;;;;;;;1.73;0.70;;;1.30;96.30;;;;;;4972066;28;20577;-77
2020/12/29 16:32:52;;;;;;;1.13;0.90;;;1.30;96.30;;;;;;4961848;28;20258;-79
2020/12/29 16:35:18;;;;;;;1.43;1.33;;;1.30;96.30;;;;;;4974448;28;20625;-79
2020/12/29 16:37:45;;;;;;;1.40;1.03;;;1.30;96.30;;;;;;4968414;28;20182;-79
2020/12/29 16:40:12;;;;;;;1.20;0.77;;;1.40;96.30;;;;;;4974079;28;20197;-78
2020/12/29 16:42:37;;;;;;;1.10;1.00;;;1.50;96.30;;;;;;4981190;28;20413;-78
2020/12/29 16:45:03;;;;;;;1.30;0.93;;;1.50;96.30;;;;;;4974456;28;20425;-78
2020/12/29 16:47:29;;;;;;;1.40;1.10;;;1.60;96.30;;;;;;4974402;28;20190;-79
2020/12/29 16:49:54;;;;;;;1.57;0.90;;;1.60;96.30;;;;;;4970141;28;20426;-78